Jean Philippe Monclin

Jean Philippe Monclin

Statistiques 2026

  • Courses courues : 76
  • Nb de victoires : 17
  • Nb de places : 35
  • Écart gagnant : 2
  • Réussite à la gagne : 22%
  • Réussite à la place : 46%
Musique : 0a 2a 1a 0a 4a 0a 4a 1a 6a Da 3a Da 3a 1a 1a 3a 5a 2a
DateRangCatégorieAlloc.Dist.HippodromeChevalRed. KmSpé.
29/01/23 8 Trot 23 000€ 3 000m Nantes Georges du Hour 1'16"0 Attelé
29/01/23 5 Trot 23 000€ 3 000m Nantes Gilou de Fontaine 1'15"9 Attelé
29/01/23 3 Trot 20 000€ 3 025m Nantes Joueur Danica 1'15"0 Attelé
07/02/23 5 Trot 18 000€ 2 300m Chateaubriant Kazakhstan 1'18"2 Attelé
09/02/23 8 Trot 18 000€ 2 275m Nantes Jialga Gold Elge 1'17"9 Attelé
09/02/23 D Trot 18 000€ 2 275m Nantes Jupiter du Gite Attelé
09/02/23 3 Trot 20 000€ 3 025m Nantes Igual Blue 1'14"2 Attelé
09/02/23 7 Trot 26 000€ 3 000m Nantes Helio Vaine 1'15"1 Attelé
09/02/23 8 Trot 29 000€ 3 000m Nantes Equejuelo 1'15"0 Attelé
12/02/23 8 Trot 11 000€ 2 375m Challans Kim Cash 1'19"1 Attelé
12/02/23 D Trot 13 000€ 2 375m Challans Jazz Criscani Attelé
12/02/23 0 Trot 13 000€ 2 375m Challans Josca du Quenne Attelé
12/02/23 0 Trot 16 000€ 2 925m Challans Hairin des Noues Attelé
12/02/23 5 Trot 18 000€ 2 925m Challans Guinness Oradel 1'16"0 Attelé
12/02/23 5 Trot 15 000€ 2 925m Challans Ivoire du Chatelet 1'18"3 Attelé
13/02/23 2 Trot 39 000€ 2 700m Vincennes Irlanda Lova 1'14"3 Attelé lire

Longtemps dans la dernière partie du peloton, a progressé dans la montée, soutenant très bien son effort jusqu'à la fin.

13/02/23 1 Trot 44 000€ 2 700m Vincennes Jamaica 1'14"9 Attelé lire

Après avoir attendu, a progressé dans la montée, terminant ensuite la plus vite.

13/02/23 D Trot 32 000€ 2 100m Vincennes Kanelle du Val Attelé
14/02/23 8 Trot 39 000€ 2 100m Vincennes Joueur Danica 1'12"4 Attelé lire

N'a pu que figurer au sein du peloton.

14/02/23 2 Trot 32 000€ 2 100m Vincennes Kronos d'Eole 1'14"4 Attelé
14/02/23 9 Trot 39 000€ 2 700m Vincennes Hauckland 1'14"0 Attelé lire

N'a pu que figurer au sein du peloton.

15/02/23 D Trot 26 000€ 2 875m Laval Grizzly Bear Attelé lire

Très vite en queue de peloton, a été sanctionné au bout de la ligne opposée.

15/02/23 9 Trot 20 000€ 2 850m Laval Hercule des Sables 1'15"8 Attelé
15/02/23 5 Trot 14 000€ 2 850m Laval Keep Ever Faith 1'18"8 Attelé
18/02/23 0 Trot 20 000€ 2 850m Laval Iron du Vaal Attelé
18/02/23 4 Trot 33 000€ 2 850m Laval Expelliarmus 1'15"0 Attelé
18/02/23 2 Trot 20 000€ 2 850m Laval Italie France 1'16"4 Attelé
18/02/23 D Trot 20 000€ 2 850m Laval Jumper Family Attelé
19/02/23 8 Trot 39 000€ 2 700m Vincennes Igual Blue 1'14"8 Attelé lire

Très vite à la pointe du combat, a complètement cédé dans la phase finale.

19/02/23 D Trot 200 000€ 2 700m Vincennes Ksar Attelé lire

Après avoir figuré au sein du peloton, a été sanctionné dans le tournant final.

26/02/23 D Mixte 11 000€ 2 800m Cholet Kino de Laumiere Attelé
26/02/23 3 Mixte 13 000€ 2 800m Cholet Jerico Badrec 1'19"9 Attelé
27/02/23 D Trot 14 000€ 2 275m Nantes Kanelle du Val Attelé
27/02/23 D Trot 20 000€ 3 000m Nantes Ibiza de Banville Attelé
27/02/23 2 Trot 23 000€ 3 025m Nantes Hadrien 1'15"0 Attelé
04/03/23 5 Trot 57 000€ 2 100m Vincennes Embleme Castelets 1'12"4 Attelé lire

Après avoir figuré, n'a pas été capable de changer de rythme dans la phase finale.

04/03/23 3 Trot 51 000€ 2 850m Vincennes Jamaica 1'14"9 Attelé
04/03/23 2 Trot 65 000€ 2 700m Vincennes Expresso Good 1'13"4 Attelé lire

Après avoir attendu, a comblé du terrain tout au long de la ligne droite, tout en étant sur des ½ufs.

05/03/23 4 Mixte 13 500€ 2 575m Saint Brieuc Jaika des Bordes 1'18"5 Attelé
05/03/23 3 Mixte 10 000€ 3 175m Saint Brieuc Decor du Surf 1'16"3 Attelé
05/03/23 0 Mixte 15 000€ 2 575m Saint Brieuc Intuition Magic Attelé
05/03/23 2 Mixte 15 000€ 2 575m Saint Brieuc Ina Melody 1'17"6 Attelé
05/03/23 3 Mixte 15 000€ 2 575m Saint Brieuc In Excess Girl 1'17"1 Attelé
10/03/23 D Trot 19 500€ 2 825m Cordemais Kretteville Attelé
10/03/23 D Trot 17 500€ 2 850m Cordemais Jaflosa Ar Carac Attelé
10/03/23 7 Trot 23 000€ 2 825m Cordemais Ivory Wind 1'16"9 Attelé
12/03/23 1 Trot 14 500€ 2 800m Cholet Krach Nonantais 1'19"1 Attelé
12/03/23 D Trot 13 000€ 2 825m Cholet Jade Renardier Attelé
12/03/23 1 Trot 15 000€ 2 800m Cholet Ironie de Chenu 1'17"3 Attelé
12/03/23 1 Trot 15 000€ 2 800m Cholet Insolente Chance 1'18"1 Attelé